createdAt,value
2022-08-22T00:00:42.797Z,3.60
2022-08-22T00:03:01.342Z,2.55
2022-08-22T00:04:17.015Z,3.58
2022-08-22T00:07:38.847Z,3.90
2022-08-22T00:11:19.645Z,3.97
2022-08-22T00:14:53.486Z,3.67
2022-08-22T00:18:05.712Z,4.38
2022-08-22T00:21:12.448Z,4.03
2022-08-22T00:24:28.749Z,4.30
2022-08-22T00:27:45.986Z,3.67
2022-08-22T00:30:58.824Z,3.80
2022-08-22T00:34:09.153Z,3.90
2022-08-22T00:37:34.761Z,3.78
2022-08-22T00:40:53.508Z,3.92
2022-08-22T00:44:17.123Z,3.95
2022-08-22T00:47:42.650Z,4.00
2022-08-22T00:51:05.678Z,3.88
2022-08-22T00:54:39.787Z,4.03
2022-08-22T00:58:08.975Z,3.95
2022-08-22T01:01:11.901Z,4.13
2022-08-22T01:04:52.212Z,4.22
2022-08-22T01:08:39.172Z,4.22
2022-08-22T01:12:07.021Z,4.22
2022-08-22T01:15:11.895Z,3.75
2022-08-22T01:19:08.457Z,4.70
2022-08-22T01:23:30.716Z,4.10
2022-08-22T01:27:21.448Z,3.88
2022-08-22T01:31:11.568Z,4.40
2022-08-22T01:34:18.333Z,4.70
2022-08-22T01:38:19.757Z,4.80
2022-08-22T01:42:05.604Z,4.47
2022-08-22T01:45:36.264Z,4.00
2022-08-22T01:48:51.031Z,4.35
2022-08-22T01:52:44.289Z,4.70
2022-08-22T01:56:12.937Z,4.50
2022-08-22T01:59:15.104Z,4.47
2022-08-22T02:02:51.343Z,4.55
2022-08-22T02:06:04.897Z,4.80
2022-08-22T02:09:34.496Z,5.00
2022-08-22T02:13:09.651Z,4.65
2022-08-22T02:16:29.078Z,4.90
2022-08-22T02:19:44.621Z,4.53
2022-08-22T02:22:55.089Z,4.47
2022-08-22T02:25:56.773Z,4.75
2022-08-22T02:29:53.108Z,4.70
2022-08-22T02:33:34.334Z,4.47
2022-08-22T02:37:23.281Z,4.75
2022-08-22T02:40:44.450Z,4.22
2022-08-22T02:44:19.516Z,4.45
2022-08-22T02:47:41.718Z,4.43
2022-08-22T02:50:57.822Z,4.70
2022-08-22T02:54:24.728Z,4.97
2022-08-22T02:58:06.033Z,4.45
2022-08-22T03:01:02.851Z,5.05
2022-08-22T03:04:30.750Z,4.53
2022-08-22T03:07:42.384Z,4.95
2022-08-22T03:10:47.642Z,4.55
2022-08-22T03:14:12.983Z,4.70
2022-08-22T03:17:25.922Z,4.80
2022-08-22T03:20:53.173Z,4.97
2022-08-22T03:24:01.215Z,5.05
2022-08-22T03:27:32.897Z,4.90
2022-08-22T03:30:44.530Z,5.07
2022-08-22T03:33:42.172Z,4.40
2022-08-22T03:36:39.238Z,5.13
2022-08-22T03:39:59.824Z,4.85
2022-08-22T03:43:14.231Z,5.13
2022-08-22T03:46:21.636Z,5.00
2022-08-22T03:49:24.005Z,4.90
2022-08-22T03:53:15.257Z,5.07
2022-08-22T03:56:57.398Z,4.20
2022-08-22T04:00:42.020Z,4.45
2022-08-22T04:04:35.286Z,4.68
2022-08-22T04:08:06.696Z,4.75
2022-08-22T04:11:48.755Z,5.00
2022-08-22T04:15:16.216Z,4.72
2022-08-22T04:18:29.112Z,4.78
2022-08-22T04:21:52.768Z,4.78
2022-08-22T04:25:16.854Z,4.93
2022-08-22T04:28:28.004Z,4.72
2022-08-22T04:31:36.563Z,5.35
2022-08-22T04:35:03.454Z,5.00
2022-08-22T04:38:29.350Z,4.68
2022-08-22T04:42:00.668Z,4.47
2022-08-22T04:45:24.112Z,4.95
2022-08-22T04:48:48.431Z,4.32
2022-08-22T04:52:29.508Z,5.47
2022-08-22T04:56:13.397Z,6.00
2022-08-22T04:59:17.924Z,4.57
2022-08-22T05:02:24.418Z,5.55
2022-08-22T05:05:32.955Z,4.75
2022-08-22T05:08:36.033Z,4.80
2022-08-22T05:11:38.359Z,5.22
2022-08-22T05:14:46.796Z,6.68
2022-08-22T05:17:46.273Z,5.18
2022-08-22T05:20:48.074Z,5.97
2022-08-22T05:24:06.543Z,5.75
2022-08-22T05:27:22.875Z,5.35
2022-08-22T05:30:27.849Z,5.80
2022-08-22T05:33:32.247Z,5.25
2022-08-22T05:36:40.413Z,5.43
2022-08-22T05:39:40.335Z,4.75
2022-08-22T05:42:37.655Z,5.20
2022-08-22T05:45:36.299Z,5.35
2022-08-22T05:48:46.160Z,5.68
2022-08-22T05:52:05.276Z,4.78
2022-08-22T05:55:20.483Z,5.13
2022-08-22T05:58:41.385Z,4.90
2022-08-22T06:05:00.951Z,4.55
2022-08-22T06:08:20.145Z,5.82
2022-08-22T06:11:26.351Z,5.13
2022-08-22T06:14:48.165Z,5.22
2022-08-22T06:17:58.160Z,4.70
2022-08-22T06:21:06.880Z,4.90
2022-08-22T06:24:08.653Z,5.05
2022-08-22T06:27:12.730Z,4.50
2022-08-22T06:30:14.960Z,4.22
2022-08-22T06:33:18.544Z,4.72
2022-08-22T06:36:32.190Z,4.72
2022-08-22T06:39:37.796Z,4.75
2022-08-22T06:42:41.746Z,4.80
2022-08-22T06:45:40.662Z,4.68
2022-08-22T06:48:38.221Z,5.10
2022-08-22T06:51:38.021Z,4.80
2022-08-22T06:54:40.394Z,4.53
2022-08-22T06:57:50.449Z,4.45
2022-08-22T07:01:05.710Z,4.78
2022-08-22T07:04:11.279Z,4.93
2022-08-22T07:07:08.259Z,4.68
2022-08-22T07:10:05.940Z,4.15
2022-08-22T07:13:04.403Z,4.80
2022-08-22T07:16:07.741Z,4.72
2022-08-22T07:19:06.117Z,4.75
2022-08-22T07:22:26.012Z,4.43
2022-08-22T07:25:24.670Z,4.65
2022-08-22T07:28:50.798Z,4.25
2022-08-22T07:32:18.900Z,4.43
2022-08-22T07:35:26.787Z,4.63
2022-08-22T07:38:43.750Z,5.05
2022-08-22T07:42:19.220Z,5.20
2022-08-22T07:45:49.402Z,5.10
2022-08-22T07:49:08.540Z,4.15
2022-08-22T07:52:11.931Z,4.45
2022-08-22T07:55:20.358Z,4.15
2022-08-22T07:58:18.633Z,3.47
2022-08-22T08:01:20.715Z,4.00
2022-08-22T08:04:35.810Z,4.45
2022-08-22T08:07:35.688Z,3.90
2022-08-22T08:10:37.369Z,4.05
2022-08-22T08:13:46.903Z,4.03
2022-08-22T08:17:05.124Z,3.95
2022-08-22T08:20:16.269Z,3.60
2022-08-22T08:23:23.589Z,4.28
2022-08-22T08:26:30.463Z,3.67
2022-08-22T08:29:28.854Z,3.28
2022-08-22T08:32:31.982Z,3.35
2022-08-22T08:35:42.401Z,3.25
2022-08-22T08:39:24.352Z,2.50
2022-08-22T08:43:10.872Z,3.67
2022-08-22T08:46:43.352Z,3.05
2022-08-22T08:49:56.018Z,2.97
2022-08-22T08:53:18.674Z,2.70
2022-08-22T08:56:19.929Z,3.30
2022-08-22T09:00:00.793Z,2.75
2022-08-22T09:03:51.242Z,3.05
2022-08-22T09:07:06.867Z,3.00
2022-08-22T09:10:59.966Z,2.92
2022-08-22T09:14:21.421Z,2.60
2022-08-22T09:17:34.429Z,2.17
2022-08-22T09:20:51.076Z,1.83
2022-08-22T09:24:33.783Z,2.35
2022-08-22T09:27:45.551Z,3.22
2022-08-22T09:31:48.317Z,2.50
2022-08-22T09:35:14.626Z,2.50
2022-08-22T09:38:37.089Z,1.92
2022-08-22T09:42:08.127Z,1.70
2022-08-22T09:45:24.670Z,1.60
2022-08-22T09:48:31.634Z,1.67
2022-08-22T09:51:55.355Z,1.40
2022-08-22T09:55:07.913Z,1.25
2022-08-22T09:58:19.583Z,1.63
2022-08-22T10:02:03.025Z,2.20
2022-08-22T10:05:35.256Z,1.42
2022-08-22T10:09:00.832Z,1.23
2022-08-22T10:12:12.515Z,1.60
2022-08-22T10:15:35.545Z,1.40
2022-08-22T10:19:17.945Z,1.35
2022-08-22T10:23:03.729Z,1.30
2022-08-22T10:26:38.405Z,1.63
2022-08-22T10:30:06.457Z,1.40
2022-08-22T10:33:23.074Z,1.42
2022-08-22T10:36:36.140Z,1.38
2022-08-22T10:40:07.956Z,2.15
2022-08-22T10:43:14.882Z,5.60
2022-08-22T10:46:29.402Z,1.92
2022-08-22T10:50:10.744Z,2.00
2022-08-22T10:53:42.834Z,1.80
2022-08-22T10:56:59.298Z,2.15
2022-08-22T11:00:12.389Z,1.40
2022-08-22T11:03:40.829Z,1.52
2022-08-22T11:07:09.473Z,1.70
2022-08-22T11:10:34.906Z,1.77
2022-08-22T11:14:19.727Z,1.77
2022-08-22T11:18:04.985Z,1.50
2022-08-22T11:21:16.492Z,0.90
2022-08-22T11:25:07.343Z,1.00
2022-08-22T11:28:33.262Z,0.85
2022-08-22T11:31:51.949Z,1.65
2022-08-22T11:34:57.417Z,1.40
2022-08-22T11:38:28.059Z,1.50
2022-08-22T11:41:58.017Z,1.38
2022-08-22T11:45:01.066Z,1.48
2022-08-22T11:48:47.058Z,1.35
2022-08-22T11:52:13.422Z,1.17
2022-08-22T11:55:33.227Z,1.23
2022-08-22T11:58:55.586Z,1.10
2022-08-22T12:02:03.963Z,1.45
2022-08-22T12:05:21.570Z,1.20
2022-08-22T12:08:52.149Z,1.42
2022-08-22T12:12:04.574Z,1.08
2022-08-22T12:15:13.367Z,1.42
2022-08-22T12:18:42.500Z,1.58
2022-08-22T12:22:00.615Z,1.30
2022-08-22T12:25:44.521Z,1.10
2022-08-22T12:29:20.134Z,1.33
2022-08-22T12:32:45.688Z,0.90
2022-08-22T12:36:21.901Z,0.98
2022-08-22T12:39:51.042Z,1.23
2022-08-22T12:43:18.861Z,1.10
2022-08-22T12:47:02.891Z,0.80
2022-08-22T12:50:12.331Z,1.00
2022-08-22T12:53:32.381Z,0.90
2022-08-22T12:56:58.668Z,1.30
2022-08-22T13:00:22.992Z,1.27
2022-08-22T13:03:32.869Z,1.23
2022-08-22T13:06:35.622Z,1.30
2022-08-22T13:09:40.651Z,1.30
2022-08-22T13:12:50.331Z,1.40
2022-08-22T13:16:16.232Z,1.10
2022-08-22T13:19:32.046Z,1.40
2022-08-22T13:22:34.843Z,1.33
2022-08-22T13:26:10.505Z,1.38
2022-08-22T13:29:39.542Z,1.30
2022-08-22T13:32:44.671Z,1.42
2022-08-22T13:36:10.849Z,1.50
2022-08-22T13:39:38.752Z,1.50
2022-08-22T13:42:45.543Z,1.35
2022-08-22T13:45:56.733Z,1.70
2022-08-22T13:49:00.736Z,1.73
2022-08-22T13:52:29.963Z,1.67
2022-08-22T13:55:34.613Z,1.58
2022-08-22T13:58:50.114Z,2.03
2022-08-22T14:02:18.337Z,1.70
2022-08-22T14:05:33.185Z,2.00
2022-08-22T14:08:36.463Z,1.70
2022-08-22T14:12:13.625Z,1.33
2022-08-22T14:15:12.645Z,1.50
2022-08-22T14:18:10.746Z,1.80
2022-08-22T14:21:33.440Z,1.65
2022-08-22T14:28:09.439Z,1.20
2022-08-22T14:31:13.427Z,1.27
2022-08-22T14:34:14.572Z,1.50
2022-08-22T14:37:31.956Z,1.63
2022-08-22T14:40:36.437Z,1.85
2022-08-22T14:43:47.068Z,1.63
2022-08-22T14:46:54.761Z,1.48
2022-08-22T14:49:57.529Z,1.63
2022-08-22T14:53:18.269Z,1.40
2022-08-22T14:56:23.963Z,1.67
2022-08-22T14:59:37.773Z,1.55
2022-08-22T15:02:35.379Z,1.90
2022-08-22T15:05:50.763Z,1.27
2022-08-22T15:08:50.518Z,2.20
2022-08-22T15:11:48.716Z,2.03
2022-08-22T15:14:52.473Z,1.90
2022-08-22T15:17:49.529Z,1.38
2022-08-22T15:21:06.833Z,2.00
2022-08-22T15:24:13.156Z,1.58
2022-08-22T15:27:11.394Z,1.30
2022-08-22T15:30:18.860Z,2.20
2022-08-22T15:33:45.415Z,1.45
2022-08-22T15:37:07.839Z,1.67
2022-08-22T15:40:27.718Z,1.92
2022-08-22T15:43:34.953Z,1.83
2022-08-22T15:46:41.280Z,2.10
2022-08-22T15:50:00.540Z,2.20
2022-08-22T15:53:18.550Z,1.40
2022-08-22T15:56:15.500Z,1.30
2022-08-22T15:59:26.999Z,1.95
2022-08-22T16:02:53.519Z,2.08
2022-08-22T16:05:56.936Z,1.30
2022-08-22T16:08:55.334Z,1.90
2022-08-22T16:11:55.457Z,1.75
2022-08-22T16:14:53.328Z,1.85
2022-08-22T16:17:53.554Z,2.22
2022-08-22T16:23:51.087Z,2.13
2022-08-22T16:26:48.833Z,1.88
2022-08-22T16:29:46.307Z,2.38
2022-08-22T16:32:53.269Z,1.98
2022-08-22T16:36:20.961Z,2.03
2022-08-22T16:39:23.665Z,1.83
2022-08-22T16:42:25.005Z,1.83
2022-08-22T16:45:24.617Z,1.70
2022-08-22T16:48:37.432Z,1.85
2022-08-22T16:51:34.493Z,1.90
2022-08-22T16:54:53.567Z,1.70
2022-08-22T16:58:17.730Z,1.88
2022-08-22T17:01:26.782Z,2.00
2022-08-22T17:04:51.462Z,1.52
2022-08-22T17:07:54.094Z,1.95
2022-08-22T17:11:40.622Z,2.10
2022-08-22T17:15:07.119Z,1.98
2022-08-22T17:18:25.546Z,2.38
2022-08-22T17:21:29.436Z,2.55
2022-08-22T17:24:50.954Z,2.38
2022-08-22T17:28:22.972Z,1.77
2022-08-22T17:31:54.823Z,1.85
2022-08-22T17:35:24.625Z,2.03
2022-08-22T17:38:51.847Z,1.63
2022-08-22T17:42:19.022Z,1.60
2022-08-22T17:46:00.253Z,1.77
2022-08-22T17:49:17.339Z,1.77
2022-08-22T17:52:38.026Z,2.10
2022-08-22T17:55:52.770Z,2.13
2022-08-22T17:59:20.931Z,2.10
2022-08-22T18:02:50.228Z,2.80
2022-08-22T18:05:49.127Z,2.40
2022-08-22T18:09:18.574Z,2.88
2022-08-22T18:12:33.677Z,3.00
2022-08-22T18:16:05.845Z,2.03
2022-08-22T18:19:16.916Z,2.00
2022-08-22T18:22:31.750Z,1.90
2022-08-22T18:25:41.571Z,2.33
2022-08-22T18:29:13.266Z,2.17
2022-08-22T18:32:35.677Z,2.78
2022-08-22T18:35:54.701Z,2.30
2022-08-22T18:39:15.613Z,2.08
2022-08-22T18:42:33.233Z,2.60
2022-08-22T18:45:48.284Z,2.33
2022-08-22T18:49:11.675Z,2.10
2022-08-22T18:52:20.201Z,2.20
2022-08-22T18:55:28.311Z,2.20
2022-08-22T18:59:05.448Z,2.45
2022-08-22T19:02:21.043Z,2.20
2022-08-22T19:05:47.016Z,2.42
2022-08-22T19:09:03.330Z,2.10
2022-08-22T19:12:50.048Z,1.90
2022-08-22T19:15:59.354Z,2.00
2022-08-22T19:19:03.380Z,1.73
2022-08-22T19:22:33.895Z,2.28
2022-08-22T19:25:30.765Z,2.30
2022-08-22T19:28:36.742Z,2.30
2022-08-22T19:31:37.203Z,2.55
2022-08-22T19:34:46.900Z,2.20
2022-08-22T19:37:57.757Z,2.38
2022-08-22T19:40:58.593Z,2.50
2022-08-22T19:43:55.579Z,2.20
2022-08-22T19:47:26.648Z,2.50
2022-08-22T19:50:27.360Z,2.25
2022-08-22T19:54:20.362Z,2.40
2022-08-22T19:57:23.071Z,2.40
2022-08-22T20:01:07.512Z,2.15
2022-08-22T20:04:54.962Z,2.33
2022-08-22T20:08:06.722Z,2.28
2022-08-22T20:11:18.820Z,2.30
2022-08-22T20:14:33.594Z,2.22
2022-08-22T20:17:42.244Z,2.50
2022-08-22T20:20:59.810Z,2.20
2022-08-22T20:23:56.806Z,2.70
2022-08-22T20:27:13.272Z,2.47
2022-08-22T20:30:29.641Z,2.50
2022-08-22T20:33:41.591Z,2.42
2022-08-22T20:36:44.777Z,2.30
2022-08-22T20:40:55.305Z,2.22
2022-08-22T20:43:53.525Z,2.97
2022-08-22T20:47:11.322Z,3.25
2022-08-22T20:50:11.926Z,2.95
2022-08-22T20:53:17.384Z,2.80
2022-08-22T20:56:14.350Z,3.10
2022-08-22T20:59:39.754Z,2.70
2022-08-22T21:03:01.905Z,2.45
2022-08-22T21:06:19.358Z,2.63
2022-08-22T21:09:39.970Z,3.05
2022-08-22T21:12:36.808Z,3.33
2022-08-22T21:15:52.525Z,3.30
2022-08-22T21:18:52.478Z,3.70
2022-08-22T21:21:49.425Z,3.30
2022-08-22T21:24:47.187Z,3.47
2022-08-22T21:27:48.354Z,3.95
2022-08-22T21:30:47.333Z,3.40
2022-08-22T21:33:47.376Z,3.33
2022-08-22T21:36:44.602Z,2.95
2022-08-22T21:39:49.796Z,3.35
2022-08-22T21:43:10.137Z,2.60
2022-08-22T21:46:07.945Z,3.25
2022-08-22T21:49:05.392Z,3.25
2022-08-22T21:52:02.275Z,2.75
2022-08-22T21:55:32.803Z,2.72
2022-08-22T21:58:36.655Z,2.70
2022-08-22T22:01:34.184Z,3.03
2022-08-22T22:04:31.713Z,2.80
2022-08-22T22:07:29.230Z,2.90
2022-08-22T22:10:26.330Z,2.92
2022-08-22T22:13:24.101Z,2.85
2022-08-22T22:16:28.758Z,2.97
2022-08-22T22:19:25.661Z,3.20
2022-08-22T22:22:22.572Z,3.20
2022-08-22T22:25:39.016Z,3.42
2022-08-22T22:28:47.240Z,3.42
2022-08-22T22:31:44.102Z,3.60
2022-08-22T22:34:41.081Z,3.13
2022-08-22T22:37:38.030Z,3.47
2022-08-22T22:43:36.334Z,3.28
2022-08-22T22:46:33.195Z,3.13
2022-08-22T22:49:32.517Z,3.63
2022-08-22T22:52:29.691Z,3.55
2022-08-22T22:55:26.557Z,3.65
2022-08-22T22:58:23.657Z,3.42
2022-08-22T23:01:25.584Z,3.90
2022-08-22T23:04:22.557Z,3.25
2022-08-22T23:07:20.847Z,3.45
2022-08-22T23:10:21.898Z,2.80
2022-08-22T23:13:19.202Z,3.53
2022-08-22T23:16:23.229Z,3.63
2022-08-22T23:19:20.086Z,3.70
2022-08-22T23:22:17.273Z,3.70
2022-08-22T23:25:15.015Z,3.33
2022-08-22T23:28:11.935Z,3.30
2022-08-22T23:31:26.403Z,3.00
2022-08-22T23:34:27.521Z,3.10
2022-08-22T23:37:24.620Z,3.40
2022-08-22T23:40:21.565Z,3.30
2022-08-22T23:43:18.438Z,3.58
2022-08-22T23:46:17.011Z,3.15
2022-08-22T23:49:15.666Z,3.67
2022-08-22T23:52:13.703Z,3.67
2022-08-22T23:55:10.585Z,3.78
2022-08-22T23:58:07.455Z,3.63
